Thorndale, TX (76577)

11:13 AM CDT on March 29, 2015 (GMT -0500)
KTXROCKD4 | | Change Station
CLOSE
Current Station
Personal Weather Station
Location: Rockdale, TX
Elevation: 500 ft
Nearby Weather Stations

Elev 500 ft 30.56 °N, 97.07 °W | Updated 3 minutes ago

Mostly Cloudy
Mostly Cloudy
72.5 °F
Feels Like 76 °F
N
7.0
Wind Variable Wind from SE
Gusts 8.0 mph

Today
High -- | Low -- °F
--% Chance of Precip.
Yesterday
High -- | Low -- °F
Precip. -- in
7:21 AM 7:45 PM
Waxing Gibbous, 72% visible
Pressure 30.11 in
Visibility 10.0 miles
Clouds Clear
Heat Index 76 °F
Dew Point 60 °F
Humidity 64%
Rainfall 0.00 in
Snow Depth Not available.
UV 6 out of 12
Pollen 9.60 out of 12
Air Quality Not available.
Flu Activity Not available.
METAR KT35 291555Z AUTO 19013G21KT 10SM CLR 22/15 A3011 RMK AO2 T02150149

More Conditions Fewer Conditions

Pressure 30.11 in
Visibility 10.0 miles
Clouds Clear
Heat Index 76 °F
Dew Point 60 °F
Humidity 64%
Rainfall 0.00 in
Snow Depth Not available.
UV 6 out of 12
Pollen 9.60 out of 12
Air Quality Not available.
Flu Activity Not available.
METAR KT35 291555Z AUTO 19013G21KT 10SM CLR 22/15 A3011 RMK AO2 T02150149

More Conditions Fewer Conditions

10-Day Weather Forecast

Almanac

Astronomy

Mar. 29, 2015 Rise Set
Actual Time
Civil Twilight
Nautical Twilight
Astronomical Twilight
Moon
Length of Visible Light
Length of Day
Tomorrow will be .
, % of the Moon is Illuminated

Today's Extremes

State Highs State Lows

Community

WunderPhotos

Upload Photos

1,809,279 photos uploaded!

WunderBlogs® & News

Nearby

Air Quality

  Air Quality AQ Index Pollutant
Not available.

Snow Depth

Station Depth Elevation

Earthquake Activity

City Distance Mag. Time & Date
Minimum magnitude displayed is 2.5.

Coastal Water Temperatures

Place Temperature

Stations

Nearby Weather Stations

Station Location Temp. Windchill Dew Point Humidity Wind Precip. Elev Updated Type